Time;durP1;ratioP1;P1;durP2;ratioP2;P2;SDS_P1;SDS_P2;PMS_P1;PMS_P2;Temp;Humidity;BMP_temperature;BMP_pressure;BME280_temperature;BME280_humidity;BME280_pressure;Samples;Min_cycle;Max_cycle;Signal;HPM_P1;HPM_P2
2021/08/12 00:00:26;;;;;;;5.60;5.10;;;;;;;20.05;61.12;101343.03;5012686;28;20057;-47
2021/08/12 00:02:51;;;;;;;5.70;5.13;;;;;;;20.04;61.04;101346.66;4997179;28;20022;-47
2021/08/12 00:05:17;;;;;;;6.18;4.90;;;;;;;20.05;61.19;101348.38;4992531;28;20053;-46
2021/08/12 00:07:42;;;;;;;5.18;4.68;;;;;;;20.03;61.12;101345.75;5008971;28;20033;-47
2021/08/12 00:10:08;;;;;;;4.55;4.15;;;;;;;20.02;61.12;101346.69;5009441;28;20413;-47
2021/08/12 00:12:33;;;;;;;5.50;4.47;;;;;;;20.02;61.15;101341.34;4992925;28;20033;-47
2021/08/12 00:14:58;;;;;;;6.07;4.93;;;;;;;20.02;61.16;101341.34;5015039;28;20029;-47
2021/08/12 00:17:24;;;;;;;5.50;4.45;;;;;;;20.01;61.05;101342.28;5010120;28;20045;-47
2021/08/12 00:19:49;;;;;;;4.95;4.55;;;;;;;20.00;61.10;101343.19;4992344;28;20026;-47
2021/08/12 00:22:14;;;;;;;6.00;4.90;;;;;;;19.99;61.12;101346.78;5010517;28;20075;-47
2021/08/12 00:24:40;;;;;;;5.72;5.13;;;;;;;19.98;61.09;101342.38;5009182;28;20578;-47
2021/08/12 00:27:05;;;;;;;5.05;4.55;;;;;;;19.97;61.09;101344.16;5014327;28;20029;-47
2021/08/12 00:29:31;;;;;;;4.97;4.47;;;;;;;19.97;61.12;101343.28;5010850;28;20093;-47
2021/08/12 00:31:57;;;;;;;4.78;4.30;;;;;;;19.96;61.16;101353.13;5015812;28;20032;-47
2021/08/12 00:34:22;;;;;;;6.35;4.82;;;;;;;19.94;61.56;101344.28;5010165;28;20109;-47
2021/08/12 00:36:47;;;;;;;5.10;4.70;;;;;;;19.94;61.24;101348.78;5009235;28;20118;-47
2021/08/12 00:39:13;;;;;;;5.97;5.28;;;;;;;19.94;61.31;101351.44;5007633;28;20056;-47
2021/08/12 00:41:39;;;;;;;4.97;4.57;;;;;;;19.93;61.09;101337.19;5009478;28;20156;-48
2021/08/12 00:44:04;;;;;;;5.32;4.70;;;;;;;19.91;61.28;101341.72;5009172;28;20109;-48
2021/08/12 00:46:30;;;;;;;4.88;4.47;;;;;;;19.92;61.25;101342.59;5009488;28;20122;-48
2021/08/12 00:48:55;;;;;;;5.10;4.63;;;;;;;19.92;61.07;101339.91;5009041;28;20026;-48
2021/08/12 00:51:20;;;;;;;5.32;4.72;;;;;;;19.90;61.02;101341.78;5012864;28;20061;-48
2021/08/12 00:53:46;;;;;;;4.10;3.78;;;;;;;19.88;61.17;101340.03;4991162;28;20129;-48
2021/08/12 00:56:11;;;;;;;5.13;4.63;;;;;;;19.90;61.08;101331.09;5009956;28;20022;-48
2021/08/12 00:58:36;;;;;;;5.07;4.68;;;;;;;19.87;61.17;101340.97;5009325;28;20042;-48
2021/08/12 01:01:02;;;;;;;5.45;4.95;;;;;;;19.86;61.08;101336.56;5009418;28;20030;-48
2021/08/12 01:03:28;;;;;;;5.07;4.07;;;;;;;19.86;61.13;101336.56;5008305;28;20037;-48
2021/08/12 01:05:57;;;;;;;4.65;4.25;;;;;;;19.85;61.10;101332.09;5008635;28;20037;-50
2021/08/12 01:08:35;;;;;;;4.07;3.70;;;;;;;19.85;61.23;101340.13;5010543;28;20075;-49
2021/08/12 01:11:09;;;;;;;4.90;4.43;;;;;;;19.84;61.04;101332.19;5009692;28;20030;-49
2021/08/12 01:14:13;;;;;;;6.32;4.82;;;;;;;19.84;61.06;101338.41;5012307;28;20025;-49
2021/08/12 01:16:42;;;;;;;4.68;4.25;;;;;;;19.82;61.15;101337.59;4949539;28;20077;-49
2021/08/12 01:19:26;;;;;;;5.60;4.70;;;;;;;19.82;61.11;101340.28;4993830;28;20046;-49
2021/08/12 01:21:53;;;;;;;4.82;4.32;;;;;;;19.81;61.28;101334.97;5007468;28;20052;-49
2021/08/12 01:24:20;;;;;;;4.75;4.35;;;;;;;19.80;61.28;101339.44;4989899;28;20477;-49
2021/08/12 01:26:47;;;;;;;4.97;4.07;;;;;;;19.77;61.22;101334.19;4995976;28;20484;-49
2021/08/12 01:29:16;;;;;;;4.38;4.00;;;;;;;19.78;61.42;101346.69;4992885;28;20433;-49
2021/08/12 01:32:03;;;;;;;4.68;4.20;;;;;;;19.77;61.15;101338.69;5010662;28;20026;-49
2021/08/12 01:34:49;;;;;;;4.60;4.15;;;;;;;19.77;61.23;101336.03;4992728;28;20026;-49
2021/08/12 01:37:15;;;;;;;5.13;4.10;;;;;;;19.76;61.06;101335.13;5008495;28;20037;-49
2021/08/12 01:39:41;;;;;;;4.60;4.13;;;;;;;19.74;61.10;101337.88;4991181;28;20022;-49
2021/08/12 01:42:07;;;;;;;4.70;4.30;;;;;;;19.74;61.10;101329.00;4993700;28;20030;-49
2021/08/12 01:44:33;;;;;;;4.68;4.28;;;;;;;19.73;61.10;101322.75;5012865;28;20064;-49
2021/08/12 01:46:59;;;;;;;4.20;3.90;;;;;;;19.72;61.03;101334.41;4990948;28;20125;-49
2021/08/12 01:49:25;;;;;;;4.45;4.05;;;;;;;19.72;61.30;101338.88;4988307;28;20117;-49
2021/08/12 01:51:51;;;;;;;5.10;4.57;;;;;;;19.71;61.02;101334.44;4988217;28;20038;-49
2021/08/12 01:54:16;;;;;;;4.72;4.32;;;;;;;19.71;60.97;101337.13;5012005;28;20096;-49
2021/08/12 01:56:42;;;;;;;6.60;4.30;;;;;;;19.69;60.91;101331.81;4993462;28;20055;-49
2021/08/12 01:59:08;;;;;;;4.53;4.00;;;;;;;19.69;60.87;101336.28;4996540;28;20017;-49
2021/08/12 02:01:33;;;;;;;5.00;4.60;;;;;;;19.67;61.16;101332.81;5013402;28;20034;-49
2021/08/12 02:04:00;;;;;;;4.28;3.88;;;;;;;19.68;60.96;101337.22;5014004;28;20033;-49
2021/08/12 02:06:30;;;;;;;4.45;4.03;;;;;;;19.66;60.93;101339.06;4997196;28;20049;-49
2021/08/12 02:08:56;;;;;;;4.70;4.40;;;;;;;19.68;60.98;101332.75;4997440;28;20028;-49
2021/08/12 02:11:21;;;;;;;5.15;4.63;;;;;;;19.64;60.95;101332.94;5012418;28;20113;-49
2021/08/12 02:13:46;;;;;;;4.40;4.00;;;;;;;19.64;60.93;101330.25;5012290;28;20137;-49
2021/08/12 02:16:12;;;;;;;4.70;4.30;;;;;;;19.66;60.80;101331.94;5012937;28;20125;-49
2021/08/12 02:18:41;;;;;;;4.30;3.95;;;;;;;19.64;60.74;101324.91;5012813;28;20386;-49
2021/08/12 02:21:13;;;;;;;5.35;4.38;;;;;;;19.63;60.84;101328.50;5012290;28;20029;-49
2021/08/12 02:23:44;;;;;;;4.68;4.28;;;;;;;19.62;60.76;101316.94;4980615;28;20073;-49
2021/08/12 02:26:13;;;;;;;3.90;3.60;;;;;;;19.62;60.73;101330.31;5011013;28;20080;-49
2021/08/12 02:28:39;;;;;;;4.43;3.85;;;;;;;19.64;60.70;101324.91;4994514;28;20034;-49
2021/08/12 02:31:05;;;;;;;4.68;4.28;;;;;;;19.60;60.93;101319.66;5011297;28;20041;-49
2021/08/12 02:33:35;;;;;;;4.35;3.95;;;;;;;19.60;60.84;101326.81;5010858;28;20076;-49
2021/08/12 02:36:01;;;;;;;4.53;3.53;;;;;;;19.58;60.89;101320.66;4995373;28;20084;-49
2021/08/12 02:38:28;;;;;;;4.30;3.90;;;;;;;19.56;60.87;101334.06;5012075;28;20045;-49
2021/08/12 02:40:55;;;;;;;5.25;4.30;;;;;;;19.55;60.88;101329.66;5012066;28;20112;-49
2021/08/12 02:43:21;;;;;;;4.63;4.22;;;;;;;19.54;61.00;101319.88;4992609;28;20501;-49
2021/08/12 02:45:47;;;;;;;4.55;4.15;;;;;;;19.54;60.88;101319.03;5012264;28;20069;-49
2021/08/12 02:48:13;;;;;;;4.45;4.05;;;;;;;19.53;61.07;101318.13;5014689;28;20034;-49
2021/08/12 02:50:40;;;;;;;5.18;4.15;;;;;;;19.51;60.93;101320.00;4993639;28;20044;-49
2021/08/12 02:53:05;;;;;;;4.68;3.80;;;;;;;19.50;61.13;101320.91;5004194;28;20017;-49
2021/08/12 02:55:32;;;;;;;4.20;3.80;;;;;;;19.50;60.94;101323.59;5010760;28;20633;-49
2021/08/12 02:57:58;;;;;;;4.88;4.40;;;;;;;19.49;61.16;101325.41;5013283;28;20038;-49
2021/08/12 03:00:23;;;;;;;5.18;4.18;;;;;;;19.48;61.23;101325.47;4994661;28;20108;-49
2021/08/12 03:02:50;;;;;;;4.60;4.18;;;;;;;19.47;60.94;101326.38;4994435;28;20053;-49
2021/08/12 03:05:15;;;;;;;5.25;4.03;;;;;;;19.46;61.15;101332.66;4994922;28;20077;-49
2021/08/12 03:07:44;;;;;;;4.20;3.90;;;;;;;19.45;61.00;101331.81;5010623;28;20530;-49
2021/08/12 03:10:14;;;;;;;6.55;4.32;;;;;;;19.43;61.05;101339.00;4992962;28;20026;-49
2021/08/12 03:12:40;;;;;;;4.57;3.92;;;;;;;19.43;61.43;101336.31;5012853;28;20026;-49
2021/08/12 03:15:08;;;;;;;4.63;4.22;;;;;;;19.42;61.04;101333.69;5015721;28;20496;-48
2021/08/12 03:17:33;;;;;;;5.45;4.28;;;;;;;19.38;61.09;101330.28;4978497;28;20420;-48
2021/08/12 03:19:59;;;;;;;4.28;3.95;;;;;;;19.40;61.13;101339.09;4994877;28;20030;-48
2021/08/12 03:22:25;;;;;;;4.78;4.13;;;;;;;19.40;60.91;101332.91;5012199;28;20603;-47
2021/08/12 03:24:53;;;;;;;4.88;4.10;;;;;;;19.39;61.39;101336.47;5011381;28;20048;-48
2021/08/12 03:27:18;;;;;;;4.63;4.00;;;;;;;19.39;61.02;101333.81;5012928;28;20025;-51
2021/08/12 03:29:45;;;;;;;4.97;4.47;;;;;;;19.38;61.01;101329.41;5011484;28;20036;-48
2021/08/12 03:32:11;;;;;;;4.05;3.75;;;;;;;19.38;60.95;101324.03;5010650;28;20018;-48
2021/08/12 03:34:37;;;;;;;4.75;3.90;;;;;;;19.35;61.14;101325.88;5011337;28;20036;-48
2021/08/12 03:37:02;;;;;;;4.68;4.28;;;;;;;19.35;61.27;101335.72;5013924;28;20489;-48
2021/08/12 03:39:28;;;;;;;4.50;4.10;;;;;;;19.35;61.16;101336.59;5010102;28;20033;-48
2021/08/12 03:41:53;;;;;;;5.75;3.85;;;;;;;19.35;61.32;101341.94;5014536;28;20026;-48
2021/08/12 03:44:18;;;;;;;4.40;4.00;;;;;;;19.35;61.00;101336.59;5015709;28;20432;-48
2021/08/12 03:46:44;;;;;;;4.18;3.88;;;;;;;19.33;60.77;101341.13;5012159;28;20025;-48
2021/08/12 03:49:09;;;;;;;5.20;4.70;;;;;;;19.33;61.16;101343.81;5010979;28;20033;-48
2021/08/12 03:51:35;;;;;;;4.70;4.20;;;;;;;19.32;61.12;101352.75;5009971;28;20037;-48
2021/08/12 03:54:00;;;;;;;4.90;4.40;;;;;;;19.32;61.12;101358.13;4992557;28;20041;-48
2021/08/12 03:56:25;;;;;;;5.75;4.15;;;;;;;19.31;61.09;101353.66;5011555;28;20036;-48
2021/08/12 03:58:51;;;;;;;4.05;3.75;;;;;;;19.31;61.18;101360.84;5029363;22;20042;-49
2021/08/12 04:01:16;;;;;;;4.65;4.25;;;;;;;19.30;61.33;101353.72;4995108;28;20030;-49
2021/08/12 04:03:41;;;;;;;5.15;4.43;;;;;;;19.29;60.84;101358.22;5012563;28;20044;-47
2021/08/12 04:06:07;;;;;;;4.45;3.90;;;;;;;19.29;61.08;101352.88;5002449;28;20107;-48
2021/08/12 04:08:32;;;;;;;5.00;4.57;;;;;;;19.29;60.90;101350.19;5012107;28;20164;-48
2021/08/12 04:10:57;;;;;;;4.47;4.00;;;;;;;19.30;60.50;101354.59;5013006;28;20026;-47
2021/08/12 04:13:23;;;;;;;5.20;4.80;;;;;;;19.29;60.66;101347.53;5011499;28;20531;-49
2021/08/12 04:15:48;;;;;;;4.45;4.05;;;;;;;19.30;60.59;101348.38;5008847;28;20489;-49
2021/08/12 04:18:13;;;;;;;4.72;3.88;;;;;;;19.28;60.39;101353.81;4977257;28;20075;-48
2021/08/12 04:20:39;;;;;;;4.28;3.92;;;;;;;19.29;60.90;101358.22;5012276;28;20026;-48
2021/08/12 04:23:04;;;;;;;4.32;3.88;;;;;;;19.29;60.75;101341.28;5012389;28;20079;-48
2021/08/12 04:25:29;;;;;;;4.10;3.70;;;;;;;19.29;60.56;101341.28;5012042;28;20079;-49
2021/08/12 04:27:55;;;;;;;5.05;3.97;;;;;;;19.27;60.93;101338.66;5010156;28;20124;-48
2021/08/12 04:30:21;;;;;;;4.00;3.65;;;;;;;19.25;60.70;101342.31;5010602;28;20018;-48
2021/08/12 04:32:46;;;;;;;5.45;4.28;;;;;;;19.24;60.97;101338.75;5016158;28;20466;-48
2021/08/12 04:35:12;;;;;;;4.88;4.40;;;;;;;19.26;60.86;101336.94;4993675;28;20072;-48
2021/08/12 04:37:43;;;;;;;4.57;4.20;;;;;;;19.23;60.64;101337.03;5008516;28;20029;-49
2021/08/12 04:40:09;;;;;;;4.47;4.07;;;;;;;19.24;60.73;101338.75;5010200;28;20057;-49
2021/08/12 04:42:35;;;;;;;4.60;3.92;;;;;;;19.21;60.54;101338.91;5008454;28;20056;-48
2021/08/12 04:45:00;;;;;;;5.72;4.40;;;;;;;19.21;60.62;101339.75;5010580;28;20053;-48
2021/08/12 04:47:26;;;;;;;4.68;4.28;;;;;;;19.20;61.12;101338.00;4992839;28;20052;-48
2021/08/12 04:49:51;;;;;;;4.47;4.07;;;;;;;19.17;60.62;101335.44;5009681;28;20045;-47
2021/08/12 04:52:16;;;;;;;4.15;3.75;;;;;;;19.18;60.49;101339.00;5008098;28;20080;-48
2021/08/12 04:54:42;;;;;;;4.38;3.97;;;;;;;19.17;60.69;101346.13;5008552;28;20061;-48
2021/08/12 04:57:07;;;;;;;5.00;3.60;;;;;;;19.16;60.26;101335.50;5009292;28;20100;-47
2021/08/12 04:59:32;;;;;;;4.53;3.80;;;;;;;19.14;61.11;101348.06;5012110;28;20036;-47
2021/08/12 05:01:58;;;;;;;4.63;3.70;;;;;;;19.13;60.92;101343.59;5012317;28;20060;-48
2021/08/12 05:04:23;;;;;;;5.55;3.97;;;;;;;19.13;60.69;101351.63;5005363;28;20421;-48
2021/08/12 05:06:48;;;;;;;4.57;3.95;;;;;;;19.13;60.99;101338.25;5009543;28;20484;-47
2021/08/12 05:09:14;;;;;;;5.30;4.13;;;;;;;19.10;60.97;101341.91;4992883;28;20030;-47
2021/08/12 05:11:42;;;;;;;4.10;3.78;;;;;;;19.08;60.69;101341.97;5009098;28;20386;-48
2021/08/12 05:14:07;;;;;;;4.20;3.75;;;;;;;19.07;61.27;101342.03;5008433;28;20489;-47
2021/08/12 05:16:33;;;;;;;4.30;3.90;;;;;;;19.06;61.16;101346.50;5009252;28;20517;-48
2021/08/12 05:18:59;;;;;;;4.57;4.15;;;;;;;19.05;61.12;101352.75;4988691;28;20033;-47
2021/08/12 05:21:24;;;;;;;4.38;3.97;;;;;;;19.04;61.29;101353.66;5009089;28;20030;-47
2021/08/12 05:23:49;;;;;;;4.13;3.83;;;;;;;19.05;61.01;101350.09;4990347;28;20029;-48
2021/08/12 05:26:15;;;;;;;4.65;3.75;;;;;;;19.04;61.14;101352.81;5009063;28;20041;-48
2021/08/12 05:28:40;;;;;;;4.50;4.10;;;;;;;19.04;60.83;101359.00;5008423;28;20035;-47
2021/08/12 05:31:05;;;;;;;4.22;3.85;;;;;;;19.03;61.12;101351.94;5004951;28;20041;-48
2021/08/12 05:33:31;;;;;;;4.15;3.75;;;;;;;19.03;61.26;101351.94;5011632;28;20021;-49
2021/08/12 05:35:56;;;;;;;4.90;3.88;;;;;;;19.02;61.13;101339.50;5011776;28;20065;-47
2021/08/12 05:38:21;;;;;;;4.90;4.15;;;;;;;19.01;60.91;101343.09;5011631;28;20650;-48
2021/08/12 05:40:47;;;;;;;6.07;4.00;;;;;;;19.01;61.48;101345.78;5009792;28;20034;-47
2021/08/12 05:43:12;;;;;;;6.80;4.32;;;;;;;19.01;61.27;101342.22;4994101;28;20416;-47
2021/08/12 05:45:37;;;;;;;4.53;4.13;;;;;;;19.00;60.88;101357.38;5011889;28;20141;-47
2021/08/12 05:48:03;;;;;;;4.10;3.70;;;;;;;18.99;61.51;101355.63;4995757;28;20424;-49
2021/08/12 05:50:28;;;;;;;4.57;4.18;;;;;;;18.99;61.44;101355.63;5012673;28;20072;-49
2021/08/12 05:52:53;;;;;;;4.22;3.92;;;;;;;18.99;61.18;101360.97;5012694;28;20021;-48
2021/08/12 05:55:19;;;;;;;4.38;3.95;;;;;;;18.98;61.01;101362.75;5008159;28;20049;-47
2021/08/12 05:57:44;;;;;;;5.97;4.57;;;;;;;18.99;61.30;101366.31;5011574;28;20433;-47
2021/08/12 06:00:10;;;;;;;4.25;3.85;;;;;;;18.97;61.17;101363.69;5012315;28;20037;-47
2021/08/12 06:02:35;;;;;;;4.82;4.40;;;;;;;18.95;61.32;101360.22;5012031;28;20026;-47
2021/08/12 06:05:00;;;;;;;4.63;4.28;;;;;;;18.95;61.43;101365.56;5010641;28;20026;-47
2021/08/12 06:07:26;;;;;;;4.55;4.15;;;;;;;18.95;61.48;101370.91;4993833;28;20088;-47
2021/08/12 06:09:52;;;;;;;5.10;4.60;;;;;;;18.95;61.27;101359.34;5011188;28;20108;-48
2021/08/12 06:12:17;;;;;;;4.80;4.38;;;;;;;18.93;61.26;101364.72;4996713;28;20029;-48
2021/08/12 06:14:43;;;;;;;4.53;4.13;;;;;;;18.94;61.19;101365.63;4995882;28;20030;-47
2021/08/12 06:17:08;;;;;;;4.60;4.20;;;;;;;18.94;61.22;101369.13;5009034;28;20034;-47
2021/08/12 06:19:33;;;;;;;4.97;4.28;;;;;;;18.95;61.51;101383.38;4991085;28;20108;-47
2021/08/12 06:22:01;;;;;;;4.28;3.90;;;;;;;18.94;61.33;101385.19;5033358;28;20072;-49
2021/08/12 06:24:27;;;;;;;4.97;3.97;;;;;;;18.94;61.52;101370.97;4977704;28;20088;-47
2021/08/12 06:26:52;;;;;;;4.72;4.22;;;;;;;18.93;61.12;101366.50;5011806;28;20429;-47
2021/08/12 06:29:18;;;;;;;6.38;4.38;;;;;;;18.95;61.26;101367.34;4991408;28;20030;-48
2021/08/12 06:31:43;;;;;;;5.32;4.22;;;;;;;18.94;61.15;101376.31;5011230;28;20505;-48
2021/08/12 06:34:08;;;;;;;4.85;4.05;;;;;;;18.91;61.42;101363.03;5010837;28;20030;-49
2021/08/12 06:36:34;;;;;;;6.18;4.22;;;;;;;18.91;61.39;101373.72;5010589;28;20037;-49
2021/08/12 06:39:00;;;;;;;4.72;4.30;;;;;;;18.93;61.39;101366.50;5010027;28;20754;-49
2021/08/12 06:41:29;;;;;;;7.28;4.80;;;;;;;18.92;61.30;101362.09;4994038;28;20034;-50
2021/08/12 06:43:55;;;;;;;4.68;4.20;;;;;;;18.92;61.30;101365.66;5010975;28;20048;-49
2021/08/12 06:46:20;;;;;;;5.55;4.32;;;;;;;18.92;61.35;101364.78;5006837;28;20064;-49
2021/08/12 06:48:45;;;;;;;4.55;4.15;;;;;;;18.91;61.56;101365.72;5009946;28;20030;-48
2021/08/12 06:51:11;;;;;;;5.13;4.63;;;;;;;18.92;61.57;101351.41;5046337;22;20044;-54
2021/08/12 06:53:37;;;;;;;5.15;4.65;;;;;;;18.92;61.44;101362.09;5065764;28;20040;-53
2021/08/12 06:56:03;;;;;;;5.15;4.68;;;;;;;18.91;61.68;101358.53;5065763;28;20066;-54
2021/08/12 06:58:28;;;;;;;4.80;4.40;;;;;;;18.90;61.54;101351.47;5069542;28;20038;-54
2021/08/12 07:00:53;;;;;;;4.63;4.18;;;;;;;18.90;61.44;101359.47;5063492;28;20037;-54
2021/08/12 07:03:19;;;;;;;5.70;5.20;;;;;;;18.91;61.83;101363.03;5050140;28;20036;-52
2021/08/12 07:05:44;;;;;;;4.85;4.43;;;;;;;18.91;61.67;101363.88;5049216;28;20068;-51
2021/08/12 07:08:10;;;;;;;6.25;5.60;;;;;;;18.92;61.49;101364.78;5049853;28;20024;-52
2021/08/12 07:10:35;;;;;;;4.80;4.40;;;;;;;18.92;61.43;101370.13;5050616;28;20033;-54
2021/08/12 07:13:01;;;;;;;5.50;5.00;;;;;;;18.91;61.44;101373.72;5050425;28;20024;-54
2021/08/12 07:15:26;;;;;;;5.25;4.75;;;;;;;18.91;61.51;101371.06;5049549;28;20112;-54
2021/08/12 07:17:51;;;;;;;5.85;4.95;;;;;;;18.91;61.64;101369.25;5048066;28;20061;-54
2021/08/12 07:20:18;;;;;;;6.57;5.18;;;;;;;18.90;61.64;101372.84;5049667;28;20108;-54
2021/08/12 07:22:43;;;;;;;4.93;4.53;;;;;;;18.90;61.54;101370.16;5048818;28;20074;-50
2021/08/12 07:25:09;;;;;;;4.80;4.40;;;;;;;18.90;61.78;101366.66;5048889;28;20066;-50
2021/08/12 07:27:34;;;;;;;5.78;5.15;;;;;;;18.89;61.83;101363.09;5031414;28;20790;-50
2021/08/12 07:30:00;;;;;;;7.20;5.13;;;;;;;18.89;61.57;101370.22;5049939;28;20025;-51
2021/08/12 07:32:25;;;;;;;5.93;4.80;;;;;;;18.90;61.73;101366.66;5050743;28;20025;-50
2021/08/12 07:34:50;;;;;;;5.65;5.00;;;;;;;18.90;61.81;101366.66;5049478;28;20021;-51
2021/08/12 07:37:16;;;;;;;5.05;4.53;;;;;;;18.92;61.62;101359.44;5049453;28;20056;-51
2021/08/12 07:39:42;;;;;;;4.82;4.43;;;;;;;18.92;61.74;101367.44;5049216;28;20031;-51
2021/08/12 07:42:08;;;;;;;5.20;4.72;;;;;;;18.89;61.61;101356.84;5049320;28;20036;-51
2021/08/12 07:44:33;;;;;;;4.95;4.55;;;;;;;18.89;61.69;101364.88;5049081;28;20016;-54
2021/08/12 07:46:58;;;;;;;5.38;4.88;;;;;;;18.93;62.00;101363.84;5048339;28;20130;-53
2021/08/12 07:49:24;;;;;;;5.05;4.65;;;;;;;18.93;61.67;101355.81;5048956;28;20074;-54
2021/08/12 07:51:49;;;;;;;6.47;4.63;;;;;;;18.96;61.86;101355.72;5049478;28;20106;-53
2021/08/12 07:54:14;;;;;;;5.72;5.10;;;;;;;18.94;62.08;101363.78;5048082;28;20102;-51
2021/08/12 07:56:41;;;;;;;6.00;4.72;;;;;;;18.96;61.89;101353.94;5048089;28;20401;-52
2021/08/12 07:59:06;;;;;;;6.22;4.60;;;;;;;18.94;62.45;101354.94;5047828;28;20024;-51
2021/08/12 08:01:31;;;;;;;6.65;5.45;;;;;;;18.93;62.23;101353.16;5031466;28;20530;-54
2021/08/12 08:03:59;;;;;;;6.72;5.15;;;;;;;18.93;62.21;101347.81;5049423;28;20037;-52
2021/08/12 08:06:24;;;;;;;6.00;5.38;;;;;;;18.94;62.41;101352.25;5047645;28;20032;-54
2021/08/12 08:08:50;;;;;;;6.47;5.30;;;;;;;18.93;62.28;101351.38;5049989;28;20472;-54
2021/08/12 08:11:17;;;;;;;7.35;5.40;;;;;;;18.97;62.21;101353.00;5049474;28;20029;-54
2021/08/12 08:13:42;;;;;;;6.30;5.80;;;;;;;18.98;62.39;101351.22;5047605;28;20029;-54
2021/08/12 08:16:07;;;;;;;5.70;5.05;;;;;;;18.98;62.49;101348.53;5048940;28;20051;-51
2021/08/12 08:18:33;;;;;;;5.18;4.78;;;;;;;18.96;62.56;101345.91;5047503;28;20075;-52
2021/08/12 08:20:58;;;;;;;8.55;5.85;;;;;;;18.97;62.72;101341.44;5049136;28;20021;-52
2021/08/12 08:23:24;;;;;;;6.20;5.70;;;;;;;18.96;62.64;101342.38;5048403;28;20024;-50
2021/08/12 08:25:49;;;;;;;6.68;6.05;;;;;;;18.96;62.65;101355.72;5049822;28;20480;-50
2021/08/12 08:28:14;;;;;;;6.53;5.90;;;;;;;18.97;62.63;101346.78;5048061;28;20026;-50
2021/08/12 08:30:40;;;;;;;7.13;5.75;;;;;;;18.99;62.53;101344.94;5048092;28;20086;-54
2021/08/12 08:33:05;;;;;;;6.55;5.88;;;;;;;19.00;62.67;101335.13;5048831;28;20032;-54
2021/08/12 08:35:31;;;;;;;7.55;6.05;;;;;;;18.98;62.48;101335.19;5048795;28;20047;-53
2021/08/12 08:37:58;;;;;;;6.85;6.18;;;;;;;19.02;62.64;101335.94;5035220;28;20052;-53
2021/08/12 08:40:23;;;;;;;6.28;5.70;;;;;;;18.99;62.70;101342.25;5049467;28;20044;-52
2021/08/12 08:42:49;;;;;;;6.28;5.68;;;;;;;18.99;62.68;101339.59;5049299;28;20021;-52
2021/08/12 08:45:18;;;;;;;7.28;6.65;;;;;;;19.01;62.67;101336.88;5047704;28;20024;-52
2021/08/12 08:47:45;;;;;;;6.85;5.28;;;;;;;19.01;62.58;101335.09;5047063;28;20017;-53
2021/08/12 08:50:12;;;;;;;6.63;6.03;;;;;;;19.01;62.73;101335.09;5033207;28;20527;-52
2021/08/12 08:52:37;;;;;;;5.90;5.30;;;;;;;19.02;62.88;101336.81;5030081;28;20480;-53
2021/08/12 08:55:03;;;;;;;7.18;6.47;;;;;;;19.03;62.79;101335.88;5014987;28;20078;-53
2021/08/12 08:57:31;;;;;;;6.55;5.85;;;;;;;19.01;62.86;101335.09;5033537;28;20087;-52
2021/08/12 08:59:57;;;;;;;6.93;6.32;;;;;;;19.03;62.69;101333.22;5049854;28;20013;-52
2021/08/12 09:02:22;;;;;;;7.13;6.45;;;;;;;19.02;62.77;101328.81;5047923;28;20031;-52
2021/08/12 09:04:47;;;;;;;6.45;5.85;;;;;;;19.05;62.56;101328.69;5046840;28;20037;-52
2021/08/12 09:07:13;;;;;;;6.82;6.18;;;;;;;19.04;62.58;101331.44;5052542;28;20104;-52
2021/08/12 09:09:38;;;;;;;7.07;6.38;;;;;;;19.04;62.72;101326.94;5052044;28;20164;-52
2021/08/12 09:12:05;;;;;;;6.70;6.07;;;;;;;19.06;62.57;101327.81;5053371;28;20502;-52
2021/08/12 09:14:42;;;;;;;6.82;6.22;;;;;;;19.06;62.62;101330.47;5052696;28;20104;-51
2021/08/12 09:17:19;;;;;;;7.43;6.72;;;;;;;19.07;62.32;101332.22;5052041;28;20540;-52
2021/08/12 09:19:56;;;;;;;6.60;6.00;;;;;;;19.03;62.69;101325.19;5052079;28;20083;-54
2021/08/12 09:22:22;;;;;;;7.00;6.30;;;;;;;19.05;62.68;101325.16;5050473;28;20037;-52
2021/08/12 09:24:50;;;;;;;7.32;6.63;;;;;;;19.05;62.88;101323.34;5049532;28;20040;-52
2021/08/12 09:27:25;;;;;;;6.63;6.03;;;;;;;19.06;63.00;101325.13;5053480;28;20025;-52
2021/08/12 09:30:08;;;;;;;7.43;6.72;;;;;;;19.08;62.87;101333.09;5052501;28;20059;-52
2021/08/12 09:32:51;;;;;;;6.95;6.35;;;;;;;19.07;62.79;101325.97;5051589;28;20032;-53
2021/08/12 09:35:27;;;;;;;7.28;6.57;;;;;;;19.06;62.59;101322.44;5050558;28;20024;-53
2021/08/12 09:37:53;;;;;;;7.53;6.82;;;;;;;19.07;62.59;101326.88;5052761;28;20043;-53
2021/08/12 09:40:25;;;;;;;7.07;6.47;;;;;;;19.09;62.63;101317.00;5051009;28;20037;-53
2021/08/12 09:43:03;;;;;;;7.50;6.72;;;;;;;19.10;62.56;101315.19;5051608;28;20029;-51
2021/08/12 09:45:30;;;;;;;7.65;6.95;;;;;;;19.13;62.50;101314.19;5052248;28;20013;-51
2021/08/12 09:48:08;;;;;;;6.70;6.05;;;;;;;19.12;62.56;101315.13;5051049;28;20025;-52
2021/08/12 09:50:35;;;;;;;7.32;6.63;;;;;;;19.14;62.40;101307.94;5051332;28;20059;-52
2021/08/12 09:53:01;;;;;;;6.82;6.22;;;;;;;19.13;62.42;101315.09;5034233;28;20025;-51
2021/08/12 09:55:26;;;;;;;6.53;5.97;;;;;;;19.13;62.41;101320.44;5035868;28;20036;-51
2021/08/12 09:57:54;;;;;;;7.53;6.85;;;;;;;19.12;62.23;101317.81;5052564;28;20033;-52
2021/08/12 10:00:22;;;;;;;7.38;6.68;;;;;;;19.14;62.39;101315.97;5050888;28;20066;-51
2021/08/12 10:02:47;;;;;;;6.60;6.00;;;;;;;19.12;62.61;101323.16;5051836;28;20035;-51
2021/08/12 10:05:12;;;;;;;6.78;6.18;;;;;;;19.16;62.51;101327.47;5051383;28;20021;-52
2021/08/12 10:07:48;;;;;;;6.90;6.20;;;;;;;19.14;62.49;101324.00;5052595;28;20051;-51
2021/08/12 10:10:16;;;;;;;6.70;6.00;;;;;;;19.17;62.33;101326.56;5050176;28;20021;-52
2021/08/12 10:12:46;;;;;;;6.88;6.28;;;;;;;19.18;62.45;101323.81;5038488;28;20024;-51
2021/08/12 10:15:11;;;;;;;6.72;6.10;;;;;;;19.16;62.42;101324.78;5051342;28;20044;-52
2021/08/12 10:17:40;;;;;;;6.57;5.97;;;;;;;19.17;62.30;101323.88;5031969;28;20487;-52
2021/08/12 10:20:06;;;;;;;7.85;6.32;;;;;;;19.18;62.45;101329.16;5052317;28;20073;-52
2021/08/12 10:22:32;;;;;;;6.22;5.60;;;;;;;19.18;62.50;101336.31;5034497;28;20814;-52
2021/08/12 10:24:57;;;;;;;6.40;5.75;;;;;;;19.19;62.54;101324.69;5051836;28;20104;-52
2021/08/12 10:27:22;;;;;;;6.57;5.97;;;;;;;19.20;62.38;101327.31;5033916;28;20541;-53
2021/08/12 10:29:48;;;;;;;6.25;5.65;;;;;;;19.20;62.47;101327.31;5051876;28;20104;-53
2021/08/12 10:32:15;;;;;;;7.18;6.45;;;;;;;19.20;62.22;101331.78;5032851;28;20016;-53
2021/08/12 10:34:40;;;;;;;7.35;6.20;;;;;;;19.23;62.34;101329.00;5021184;28;20072;-52
2021/08/12 10:37:06;;;;;;;5.95;5.45;;;;;;;19.22;62.24;101319.25;5050409;28;20029;-53
2021/08/12 10:39:31;;;;;;;7.43;6.72;;;;;;;19.22;62.23;101322.81;5051179;28;20079;-51
2021/08/12 10:41:57;;;;;;;6.75;6.10;;;;;;;19.23;62.23;101321.88;5052457;28;20029;-50
2021/08/12 10:44:22;;;;;;;6.75;6.13;;;;;;;19.23;62.11;101311.16;5033924;28;20021;-52
2021/08/12 10:46:48;;;;;;;6.75;6.03;;;;;;;19.25;62.36;101307.56;5051801;28;20063;-51
2021/08/12 10:49:33;;;;;;;7.20;6.55;;;;;;;19.22;62.36;101313.91;5051661;28;20032;-51
2021/08/12 10:52:08;;;;;;;6.93;6.15;;;;;;;19.22;62.22;101304.09;5033379;28;20029;-50
2021/08/12 10:54:35;;;;;;;6.13;5.55;;;;;;;19.25;62.23;101313.78;5032858;28;20037;-50
2021/08/12 10:57:13;;;;;;;6.95;6.25;;;;;;;19.25;62.23;101308.44;5051564;28;20052;-51
2021/08/12 10:59:39;;;;;;;6.72;6.13;;;;;;;19.27;62.42;101305.72;5051093;28;20036;-50
2021/08/12 11:02:26;;;;;;;7.95;6.60;;;;;;;19.29;62.23;101301.16;5049434;28;20472;-50
2021/08/12 11:04:53;;;;;;;6.25;5.65;;;;;;;19.26;62.24;101299.50;5050866;28;20051;-50
2021/08/12 11:07:36;;;;;;;6.68;6.07;;;;;;;19.30;62.24;101295.78;5051699;28;20021;-53
2021/08/12 11:10:04;;;;;;;6.40;5.80;;;;;;;19.30;62.32;101293.09;5049664;28;20032;-53
2021/08/12 11:12:56;;;;;;;6.95;6.05;;;;;;;19.32;62.38;101287.69;5034246;28;20476;-53
2021/08/12 11:15:37;;;;;;;6.47;5.88;;;;;;;19.31;62.33;101276.13;5048182;28;20013;-53
2021/08/12 11:18:03;;;;;;;6.70;6.05;;;;;;;19.32;62.32;101282.34;5049891;28;20029;-51
2021/08/12 11:20:36;;;;;;;8.07;6.50;;;;;;;19.34;62.39;101289.38;5051045;28;20032;-53
2021/08/12 11:23:17;;;;;;;6.82;5.75;;;;;;;19.35;62.37;101282.25;5048846;28;20454;-52